< < Back
Terminal Aerodrome Forecast


Current Version              Previous Versions:   1  2  3  4  5  6  7  8  9  

Terminal Aerodrome Forecast

943
FTUS44 KMRX 230524
TAFTYS
TAF
KTYS 230524Z 2306/2406 03007KT P6SM SKC=



Latest METAR

272
SAUS80 KWBC 231200 RRA
MTRTYS
METAR KTYS 231153Z 01006KT 10SM FEW070 11/09 A3024 RMK AO2 SLP235
T01110094 10122 20100 53009


USA.gov is the U.S. government's official web portal to all federal, state and local government web resources and services.